createdAt,value
2022-12-29T00:01:30.728Z,1.90
2022-12-29T00:03:59.175Z,1.70
2022-12-29T00:06:28.964Z,1.67
2022-12-29T00:08:57.393Z,1.80
2022-12-29T00:11:26.518Z,1.63
2022-12-29T00:14:12.774Z,1.67
2022-12-29T00:16:43.800Z,1.73
2022-12-29T00:19:32.290Z,1.60
2022-12-29T00:22:19.788Z,1.70
2022-12-29T00:25:05.683Z,1.60
2022-12-29T00:27:52.029Z,1.70
2022-12-29T00:30:38.961Z,1.70
2022-12-29T00:33:29.646Z,1.90
2022-12-29T00:36:00.716Z,1.60
2022-12-29T00:38:49.043Z,1.70
2022-12-29T00:41:34.925Z,1.80
2022-12-29T00:44:11.242Z,1.70
2022-12-29T00:46:40.358Z,1.60
2022-12-29T00:49:26.806Z,1.47
2022-12-29T00:51:55.826Z,1.60
2022-12-29T00:54:25.677Z,1.80
2022-12-29T00:56:54.679Z,1.47
2022-12-29T00:59:25.012Z,1.40
2022-12-29T01:01:54.273Z,1.53
2022-12-29T01:04:23.771Z,1.47
2022-12-29T01:06:52.940Z,1.70
2022-12-29T01:09:39.462Z,1.77
2022-12-29T01:12:10.271Z,1.53
2022-12-29T01:14:39.232Z,1.80
2022-12-29T01:17:07.683Z,1.70
2022-12-29T01:19:36.097Z,1.57
2022-12-29T01:22:04.699Z,1.40
2022-12-29T01:24:33.101Z,1.30
2022-12-29T01:27:01.476Z,1.27
2022-12-29T01:29:31.182Z,1.47
2022-12-29T01:31:59.624Z,1.27
2022-12-29T01:34:28.145Z,1.20
2022-12-29T01:36:56.598Z,1.50
2022-12-29T01:39:25.008Z,1.20
2022-12-29T01:41:53.413Z,1.20
2022-12-29T01:44:40.670Z,1.17
2022-12-29T01:47:10.974Z,1.40
2022-12-29T01:49:40.079Z,1.30
2022-12-29T01:52:09.993Z,1.30
2022-12-29T01:54:41.105Z,1.07
2022-12-29T01:57:11.333Z,1.17
2022-12-29T01:59:42.063Z,1.20
2022-12-29T02:02:14.668Z,1.20
2022-12-29T02:04:47.644Z,1.00
2022-12-29T02:07:21.075Z,1.20
2022-12-29T02:09:50.579Z,1.20
2022-12-29T02:12:19.495Z,1.10
2022-12-29T02:14:48.373Z,1.10
2022-12-29T02:17:23.845Z,1.20
2022-12-29T02:20:13.188Z,1.30
2022-12-29T02:22:48.267Z,1.20
2022-12-29T02:25:29.961Z,1.17
2022-12-29T02:28:06.251Z,1.00
2022-12-29T02:30:50.712Z,1.10
2022-12-29T02:33:24.573Z,1.20
2022-12-29T02:35:56.996Z,1.10
2022-12-29T02:38:28.274Z,1.33
2022-12-29T02:41:00.219Z,1.00
2022-12-29T02:43:33.814Z,1.20
2022-12-29T02:46:07.324Z,1.10
2022-12-29T02:48:39.947Z,1.00
2022-12-29T02:51:12.016Z,1.27
2022-12-29T02:57:15.100Z,1.00
2022-12-29T02:59:44.370Z,1.03
2022-12-29T03:02:42.014Z,0.97
2022-12-29T03:05:18.404Z,1.00
2022-12-29T03:07:49.532Z,1.07
2022-12-29T03:10:22.988Z,1.10
2022-12-29T03:13:13.830Z,0.90
2022-12-29T03:16:03.214Z,1.10
2022-12-29T03:18:49.764Z,1.13
2022-12-29T03:21:22.423Z,0.90
2022-12-29T03:23:52.232Z,1.10
2022-12-29T03:26:22.722Z,1.13
2022-12-29T03:28:54.673Z,1.03
2022-12-29T03:31:27.598Z,0.87
2022-12-29T03:33:57.786Z,0.90
2022-12-29T03:36:30.729Z,1.00
2022-12-29T03:39:02.153Z,1.13
2022-12-29T03:41:32.956Z,0.90
2022-12-29T03:44:03.666Z,1.30
2022-12-29T03:46:33.224Z,0.90
2022-12-29T03:49:01.956Z,0.90
2022-12-29T03:51:31.715Z,0.93
2022-12-29T03:54:00.485Z,1.07
2022-12-29T03:56:29.344Z,1.20
2022-12-29T03:58:57.755Z,0.97
2022-12-29T04:01:32.753Z,1.50
2022-12-29T04:04:01.331Z,1.03
2022-12-29T04:06:29.846Z,1.50
2022-12-29T04:09:08.902Z,1.10
2022-12-29T04:11:42.542Z,1.27
2022-12-29T04:14:11.035Z,1.00
2022-12-29T04:16:41.668Z,1.10
2022-12-29T04:19:10.550Z,1.20
2022-12-29T04:21:39.397Z,1.10
2022-12-29T04:24:09.471Z,1.00
2022-12-29T04:26:42.700Z,1.30
2022-12-29T04:29:33.659Z,1.10
2022-12-29T04:32:12.210Z,1.10
2022-12-29T04:34:46.303Z,1.00
2022-12-29T04:37:14.995Z,1.00
2022-12-29T04:39:45.230Z,1.00
2022-12-29T04:42:13.982Z,1.20
2022-12-29T04:44:45.187Z,0.90
2022-12-29T04:47:35.346Z,1.00
2022-12-29T04:50:23.982Z,0.87
2022-12-29T04:53:02.586Z,1.17
2022-12-29T04:55:32.786Z,1.00
2022-12-29T04:58:01.155Z,1.03
2022-12-29T05:00:32.118Z,0.97
2022-12-29T05:03:00.647Z,0.80
2022-12-29T05:05:30.078Z,0.87
2022-12-29T05:08:00.001Z,1.07
2022-12-29T05:10:29.434Z,0.90
2022-12-29T05:13:02.596Z,1.00
2022-12-29T05:15:31.069Z,0.90
2022-12-29T05:18:00.180Z,1.20
2022-12-29T05:20:29.080Z,1.00
2022-12-29T05:22:58.948Z,1.10
2022-12-29T05:25:27.385Z,1.10
2022-12-29T05:28:05.210Z,1.37
2022-12-29T05:30:46.501Z,1.00
2022-12-29T05:33:14.875Z,1.00
2022-12-29T05:35:43.628Z,1.20
2022-12-29T05:38:12.285Z,1.10
2022-12-29T05:40:40.759Z,0.90
2022-12-29T05:43:21.995Z,1.00
2022-12-29T05:46:08.768Z,0.90
2022-12-29T05:48:47.705Z,0.83
2022-12-29T05:51:25.788Z,0.97
2022-12-29T05:53:55.716Z,1.10
2022-12-29T05:56:24.816Z,1.00
2022-12-29T05:58:59.596Z,1.00
2022-12-29T06:01:29.841Z,1.17
2022-12-29T06:03:59.189Z,0.90
2022-12-29T06:06:27.648Z,1.00
2022-12-29T06:08:56.376Z,1.00
2022-12-29T06:11:25.694Z,1.10
2022-12-29T06:13:57.927Z,0.90
2022-12-29T06:16:28.099Z,1.00
2022-12-29T06:19:00.005Z,1.10
2022-12-29T06:21:28.465Z,1.03
2022-12-29T06:23:57.110Z,1.07
2022-12-29T06:26:25.550Z,1.00
2022-12-29T06:28:53.953Z,1.20
2022-12-29T06:31:22.418Z,1.47
2022-12-29T06:33:52.520Z,1.17
2022-12-29T06:36:20.894Z,1.10
2022-12-29T06:38:49.320Z,1.77
2022-12-29T06:41:17.705Z,1.40
2022-12-29T06:44:21.459Z,1.40
2022-12-29T06:46:58.532Z,1.20
2022-12-29T06:49:28.304Z,1.70
2022-12-29T06:51:56.631Z,1.30
2022-12-29T06:54:25.064Z,1.30
2022-12-29T06:56:54.324Z,1.57
2022-12-29T06:59:22.902Z,1.50
2022-12-29T07:01:51.430Z,1.20
2022-12-29T07:04:19.963Z,1.20
2022-12-29T07:06:49.631Z,1.63
2022-12-29T07:09:18.184Z,1.40
2022-12-29T07:11:46.666Z,1.40
2022-12-29T07:14:15.064Z,1.40
2022-12-29T07:16:43.493Z,1.60
2022-12-29T07:19:11.977Z,1.33
2022-12-29T07:21:48.152Z,1.60
2022-12-29T07:24:17.871Z,1.23
2022-12-29T07:26:46.218Z,1.70
2022-12-29T07:29:14.620Z,1.73
2022-12-29T07:31:43.133Z,1.60
2022-12-29T07:34:11.677Z,1.30
2022-12-29T07:36:40.017Z,1.60
2022-12-29T07:39:08.350Z,1.43
2022-12-29T07:41:38.059Z,1.40
2022-12-29T07:44:06.639Z,1.40
2022-12-29T07:46:59.030Z,1.40
2022-12-29T07:49:27.696Z,1.40
2022-12-29T07:51:56.023Z,1.27
2022-12-29T07:54:24.737Z,1.30
2022-12-29T07:56:54.455Z,1.50
2022-12-29T07:59:23.014Z,1.30
2022-12-29T08:01:52.481Z,1.30
2022-12-29T08:04:21.092Z,1.50
2022-12-29T08:06:49.529Z,1.63
2022-12-29T08:09:22.320Z,1.20
2022-12-29T08:11:51.388Z,1.40
2022-12-29T08:14:21.383Z,1.37
2022-12-29T08:16:49.761Z,1.30
2022-12-29T08:19:18.449Z,1.60
2022-12-29T08:21:46.821Z,1.33
2022-12-29T08:24:15.236Z,1.53
2022-12-29T08:26:43.652Z,1.50
2022-12-29T08:29:12.118Z,1.30
2022-12-29T08:31:42.074Z,1.43
2022-12-29T08:34:10.591Z,1.50
2022-12-29T08:36:39.288Z,1.40
2022-12-29T08:39:08.199Z,1.40
2022-12-29T08:41:36.560Z,1.30
2022-12-29T08:44:04.992Z,1.40
2022-12-29T08:46:33.397Z,1.40
2022-12-29T08:49:03.148Z,1.57
2022-12-29T08:51:31.553Z,1.70
2022-12-29T08:53:59.950Z,1.53
2022-12-29T08:56:28.467Z,1.30
2022-12-29T08:58:58.889Z,1.63
2022-12-29T09:01:31.624Z,1.70
2022-12-29T09:04:17.353Z,1.50
2022-12-29T09:06:47.886Z,1.30
2022-12-29T09:09:16.281Z,1.40
2022-12-29T09:11:45.655Z,1.60
2022-12-29T09:14:14.424Z,1.43
2022-12-29T09:17:00.740Z,1.67
2022-12-29T09:19:29.297Z,1.53
2022-12-29T09:21:59.017Z,1.37
2022-12-29T09:24:27.619Z,1.60
2022-12-29T09:26:55.988Z,1.20
2022-12-29T09:29:24.429Z,1.70
2022-12-29T09:31:52.902Z,1.60
2022-12-29T09:34:21.325Z,1.37
2022-12-29T09:36:49.697Z,1.50
2022-12-29T09:39:19.416Z,1.50
2022-12-29T09:41:55.541Z,1.50
2022-12-29T09:44:27.524Z,1.40
2022-12-29T09:46:57.417Z,1.27
2022-12-29T09:49:29.254Z,1.53
2022-12-29T09:51:59.251Z,1.53
2022-12-29T09:54:37.140Z,1.40
2022-12-29T09:57:05.986Z,1.20
2022-12-29T09:59:41.471Z,1.20
2022-12-29T10:02:15.864Z,1.10
2022-12-29T10:04:44.761Z,1.60
2022-12-29T10:07:29.476Z,1.17
2022-12-29T10:10:04.292Z,1.20
2022-12-29T10:12:39.779Z,1.00
2022-12-29T10:15:12.836Z,1.13
2022-12-29T10:17:46.401Z,1.07
2022-12-29T10:20:28.377Z,1.37
2022-12-29T10:23:08.919Z,1.20
2022-12-29T10:25:40.796Z,1.30
2022-12-29T10:28:13.256Z,1.00
2022-12-29T10:30:42.490Z,1.30
2022-12-29T10:33:13.244Z,0.97
2022-12-29T10:35:44.203Z,1.27
2022-12-29T10:38:15.837Z,0.93
2022-12-29T10:40:48.121Z,1.20
2022-12-29T10:43:23.506Z,1.37
2022-12-29T10:45:52.277Z,1.50
2022-12-29T10:48:27.128Z,1.37
2022-12-29T10:51:02.058Z,1.20
2022-12-29T10:53:34.022Z,1.33
2022-12-29T10:56:05.114Z,1.40
2022-12-29T10:58:33.775Z,1.20
2022-12-29T11:01:04.945Z,1.90
2022-12-29T11:03:44.188Z,1.50
2022-12-29T11:06:14.866Z,1.50
2022-12-29T11:08:47.980Z,1.33
2022-12-29T11:11:24.601Z,1.20
2022-12-29T11:13:58.025Z,1.20
2022-12-29T11:16:34.014Z,1.20
2022-12-29T11:19:02.968Z,1.33
2022-12-29T11:21:34.858Z,0.90
2022-12-29T11:24:03.934Z,1.10
2022-12-29T11:26:35.152Z,0.90
2022-12-29T11:29:14.868Z,1.10
2022-12-29T11:31:43.889Z,1.00
2022-12-29T11:34:19.233Z,1.50
2022-12-29T11:36:47.849Z,1.10
2022-12-29T11:39:28.124Z,1.00
2022-12-29T11:41:58.491Z,1.00
2022-12-29T11:44:28.878Z,1.50
2022-12-29T11:46:57.529Z,1.03
2022-12-29T11:49:26.697Z,1.60
2022-12-29T11:51:57.828Z,1.07
2022-12-29T11:54:28.242Z,0.93
2022-12-29T11:56:58.354Z,0.93
2022-12-29T11:59:38.956Z,1.00
2022-12-29T12:02:43.665Z,0.87
2022-12-29T12:05:24.145Z,1.40
2022-12-29T12:07:54.343Z,1.03
2022-12-29T12:10:24.741Z,1.13
2022-12-29T12:12:58.599Z,1.10
2022-12-29T12:15:30.089Z,1.00
2022-12-29T12:18:06.016Z,1.00
2022-12-29T12:20:44.784Z,0.90
2022-12-29T12:23:20.729Z,1.00
2022-12-29T12:25:53.149Z,1.07
2022-12-29T12:28:24.440Z,1.00
2022-12-29T12:30:55.093Z,1.10
2022-12-29T12:33:27.688Z,1.00
2022-12-29T12:36:00.311Z,0.80
2022-12-29T12:38:34.285Z,1.00
2022-12-29T12:41:05.974Z,1.10
2022-12-29T12:43:41.945Z,0.80
2022-12-29T12:46:31.798Z,0.90
2022-12-29T12:49:09.170Z,1.10
2022-12-29T12:51:43.201Z,1.50
2022-12-29T12:54:26.614Z,1.00
2022-12-29T12:57:01.488Z,1.10
2022-12-29T12:59:39.019Z,0.93
2022-12-29T13:02:14.159Z,0.90
2022-12-29T13:04:59.258Z,1.10
2022-12-29T13:07:32.654Z,1.10
2022-12-29T13:10:15.873Z,0.83
2022-12-29T13:12:48.752Z,0.90
2022-12-29T13:15:24.561Z,1.17
2022-12-29T13:17:57.350Z,0.93
2022-12-29T13:20:31.152Z,1.10
2022-12-29T13:23:01.189Z,1.07
2022-12-29T13:25:33.229Z,1.33
2022-12-29T13:28:04.493Z,1.23
2022-12-29T13:30:36.306Z,1.00
2022-12-29T13:33:13.879Z,1.10
2022-12-29T13:35:52.709Z,0.80
2022-12-29T13:38:23.241Z,1.10
2022-12-29T13:40:53.592Z,0.90
2022-12-29T13:43:22.874Z,1.00
2022-12-29T13:45:56.971Z,0.70
2022-12-29T13:48:27.687Z,0.87
2022-12-29T13:50:58.305Z,0.80
2022-12-29T13:53:32.420Z,0.93
2022-12-29T13:56:05.436Z,1.07
2022-12-29T13:58:34.685Z,1.13
2022-12-29T14:01:07.752Z,1.07
2022-12-29T14:03:47.271Z,0.90
2022-12-29T14:06:19.403Z,1.00
2022-12-29T14:08:48.141Z,0.80
2022-12-29T14:11:17.737Z,1.10
2022-12-29T14:13:46.751Z,1.00
2022-12-29T14:16:28.376Z,1.10
2022-12-29T14:18:58.280Z,1.10
2022-12-29T14:21:30.772Z,0.90
2022-12-29T14:24:23.613Z,0.90
2022-12-29T14:26:52.144Z,1.00
2022-12-29T14:29:39.439Z,0.90
2022-12-29T14:32:38.459Z,1.00
2022-12-29T14:35:28.063Z,1.10
2022-12-29T14:38:07.633Z,1.40
2022-12-29T14:40:36.144Z,1.10
2022-12-29T14:43:14.048Z,1.10
2022-12-29T14:45:43.664Z,1.13
2022-12-29T14:48:31.933Z,1.10
2022-12-29T14:51:00.450Z,1.07
2022-12-29T14:53:45.290Z,1.00
2022-12-29T14:56:14.444Z,1.20
2022-12-29T14:58:46.734Z,1.20
2022-12-29T15:01:22.966Z,0.90
2022-12-29T15:03:54.514Z,1.10
2022-12-29T15:06:24.935Z,1.40
2022-12-29T15:08:54.945Z,1.10
2022-12-29T15:11:25.040Z,1.20
2022-12-29T15:13:53.534Z,1.03
2022-12-29T15:16:26.124Z,1.10
2022-12-29T15:18:56.164Z,1.00
2022-12-29T15:21:27.004Z,1.00
2022-12-29T15:23:55.367Z,1.17
2022-12-29T15:26:24.200Z,1.17
2022-12-29T15:28:53.502Z,1.10
2022-12-29T15:31:29.996Z,1.20
2022-12-29T15:34:11.955Z,1.57
2022-12-29T15:36:41.659Z,1.20
2022-12-29T15:39:20.476Z,1.27
2022-12-29T15:42:02.356Z,1.40
2022-12-29T15:44:32.568Z,1.20
2022-12-29T15:47:04.009Z,1.20
2022-12-29T15:49:33.915Z,1.10
2022-12-29T15:52:02.378Z,1.00
2022-12-29T15:54:33.079Z,1.10
2022-12-29T15:57:01.534Z,1.57
2022-12-29T15:59:33.021Z,1.47
2022-12-29T16:02:07.177Z,1.40
2022-12-29T16:05:08.772Z,1.33
2022-12-29T16:07:33.268Z,1.37
2022-12-29T16:10:04.834Z,1.60
2022-12-29T16:12:34.636Z,1.57
2022-12-29T16:15:04.124Z,1.57
2022-12-29T16:17:33.904Z,1.70
2022-12-29T16:20:04.814Z,1.40
2022-12-29T16:22:34.476Z,1.40
2022-12-29T16:25:05.111Z,1.50
2022-12-29T16:27:39.120Z,1.30
2022-12-29T16:30:09.170Z,1.60
2022-12-29T16:32:37.686Z,1.60
2022-12-29T16:35:14.285Z,1.70
2022-12-29T16:37:42.821Z,1.67
2022-12-29T16:40:27.053Z,1.70
2022-12-29T16:42:58.645Z,2.23
2022-12-29T16:45:57.714Z,2.80
2022-12-29T16:48:27.793Z,2.27
2022-12-29T16:51:03.646Z,2.10
2022-12-29T16:53:34.351Z,2.23
2022-12-29T16:56:06.096Z,1.90
2022-12-29T16:58:36.210Z,1.97
2022-12-29T17:01:06.752Z,1.93
2022-12-29T17:03:37.203Z,1.80
2022-12-29T17:06:07.242Z,1.90
2022-12-29T17:08:42.546Z,1.77
2022-12-29T17:11:38.679Z,1.60
2022-12-29T17:14:07.274Z,1.80
2022-12-29T17:16:35.628Z,2.67
2022-12-29T17:19:04.003Z,2.27
2022-12-29T17:21:33.912Z,1.77
2022-12-29T17:24:04.176Z,1.70
2022-12-29T17:26:32.577Z,2.17
2022-12-29T17:29:00.906Z,2.03
2022-12-29T17:31:29.342Z,1.60
2022-12-29T17:33:57.857Z,2.40
2022-12-29T17:36:26.464Z,2.13
2022-12-29T17:38:56.224Z,2.23
2022-12-29T17:41:25.173Z,1.83
2022-12-29T17:43:53.567Z,1.70
2022-12-29T17:46:21.980Z,1.70
2022-12-29T17:48:53.812Z,2.03
2022-12-29T17:51:25.134Z,1.80
2022-12-29T17:53:53.792Z,2.00
2022-12-29T17:56:23.601Z,1.90
2022-12-29T17:58:52.016Z,2.00
2022-12-29T18:01:22.523Z,2.00
2022-12-29T18:03:51.034Z,2.10
2022-12-29T18:06:19.580Z,1.80
2022-12-29T18:08:47.963Z,1.50
2022-12-29T18:11:25.950Z,1.50
2022-12-29T18:13:54.531Z,1.50
2022-12-29T18:16:23.476Z,1.30
2022-12-29T18:18:51.983Z,2.43
2022-12-29T18:21:21.872Z,2.00
2022-12-29T18:23:50.904Z,2.43
2022-12-29T18:26:27.075Z,1.60
2022-12-29T18:28:57.316Z,1.60
2022-12-29T18:31:26.769Z,1.97
2022-12-29T18:33:56.168Z,1.40
2022-12-29T18:36:24.602Z,1.40
2022-12-29T18:38:54.817Z,1.77
2022-12-29T18:41:24.314Z,1.73
2022-12-29T18:43:52.736Z,1.63
2022-12-29T18:46:23.857Z,1.70
2022-12-29T18:48:52.730Z,1.97
2022-12-29T18:51:21.880Z,1.60
2022-12-29T18:53:50.843Z,1.50
2022-12-29T18:56:19.262Z,1.57
2022-12-29T18:58:47.679Z,1.70
2022-12-29T19:01:20.747Z,1.90
2022-12-29T19:03:50.634Z,1.87
2022-12-29T19:06:19.370Z,1.70
2022-12-29T19:08:47.751Z,1.60
2022-12-29T19:11:16.251Z,1.73
2022-12-29T19:13:44.711Z,1.40
2022-12-29T19:16:16.040Z,1.73
2022-12-29T19:18:47.423Z,1.67
2022-12-29T19:21:21.412Z,1.60
2022-12-29T19:23:50.171Z,1.60
2022-12-29T19:26:26.756Z,1.83
2022-12-29T19:28:55.086Z,2.40
2022-12-29T19:31:23.642Z,2.30
2022-12-29T19:33:52.097Z,1.87
2022-12-29T19:36:22.634Z,2.47
2022-12-29T19:38:51.089Z,2.50
2022-12-29T19:41:19.494Z,2.30
2022-12-29T19:43:48.426Z,1.90
2022-12-29T19:46:18.426Z,1.60
2022-12-29T19:48:46.876Z,1.60
2022-12-29T19:51:17.266Z,1.40
2022-12-29T19:53:47.522Z,1.40
2022-12-29T19:56:16.261Z,1.30
2022-12-29T19:58:47.553Z,1.10
2022-12-29T20:01:17.790Z,1.23
2022-12-29T20:03:46.432Z,1.37
2022-12-29T20:06:15.247Z,1.50
2022-12-29T20:08:43.698Z,1.30
2022-12-29T20:11:14.515Z,1.53
2022-12-29T20:13:43.288Z,1.37
2022-12-29T20:16:13.705Z,1.30
2022-12-29T20:18:42.435Z,1.20
2022-12-29T20:21:12.995Z,0.97
2022-12-29T20:23:41.847Z,1.17
2022-12-29T20:26:10.430Z,1.00
2022-12-29T20:28:40.292Z,1.27
2022-12-29T20:31:11.021Z,1.20
2022-12-29T20:33:39.634Z,1.13
2022-12-29T20:36:08.364Z,1.10
2022-12-29T20:38:37.007Z,1.10
2022-12-29T20:41:05.665Z,1.20
2022-12-29T20:43:34.261Z,1.00
2022-12-29T20:46:04.425Z,1.10
2022-12-29T20:48:32.829Z,0.90
2022-12-29T20:51:01.337Z,1.10
2022-12-29T20:53:29.782Z,1.10
2022-12-29T20:56:02.058Z,1.00
2022-12-29T20:58:30.530Z,0.90
2022-12-29T21:01:02.575Z,1.10
2022-12-29T21:03:32.588Z,1.00
2022-12-29T21:06:01.310Z,1.10
2022-12-29T21:08:31.000Z,1.00
2022-12-29T21:10:59.727Z,1.00
2022-12-29T21:13:28.529Z,1.10
2022-12-29T21:15:57.715Z,1.27
2022-12-29T21:18:26.275Z,1.47
2022-12-29T21:20:59.526Z,1.23
2022-12-29T21:23:28.057Z,1.40
2022-12-29T21:25:56.845Z,1.30
2022-12-29T21:28:25.948Z,1.03
2022-12-29T21:30:54.520Z,1.20
2022-12-29T21:33:23.426Z,1.10
2022-12-29T21:35:51.793Z,1.20
2022-12-29T21:38:21.563Z,1.43
2022-12-29T21:40:49.919Z,1.50
2022-12-29T21:43:18.300Z,1.30
2022-12-29T21:45:50.216Z,0.87
2022-12-29T21:48:25.134Z,0.97
2022-12-29T21:51:11.802Z,1.10
2022-12-29T21:53:42.209Z,0.80
2022-12-29T21:56:11.682Z,0.90
2022-12-29T21:58:58.477Z,0.90
2022-12-29T22:01:45.634Z,0.80
2022-12-29T22:04:32.324Z,0.90
2022-12-29T22:07:18.327Z,0.73
2022-12-29T22:10:06.099Z,0.80
2022-12-29T22:12:52.253Z,0.87
2022-12-29T22:15:20.785Z,0.80
2022-12-29T22:17:50.386Z,0.87
2022-12-29T22:20:18.909Z,0.90
2022-12-29T22:22:47.584Z,1.20
2022-12-29T22:25:17.495Z,0.80
2022-12-29T22:27:46.119Z,0.80
2022-12-29T22:30:16.123Z,0.70
2022-12-29T22:32:44.631Z,0.70
2022-12-29T22:35:13.366Z,0.63
2022-12-29T22:37:43.536Z,0.93
2022-12-29T22:40:12.755Z,0.77
2022-12-29T22:42:42.494Z,0.73
2022-12-29T22:45:11.190Z,0.80
2022-12-29T22:47:40.148Z,1.00
2022-12-29T22:50:08.840Z,1.10
2022-12-29T22:52:37.214Z,0.87
2022-12-29T22:55:07.163Z,0.80
2022-12-29T22:57:36.082Z,0.80
2022-12-29T23:00:06.219Z,1.20
2022-12-29T23:02:34.777Z,0.77
2022-12-29T23:05:04.846Z,0.80
2022-12-29T23:07:34.768Z,0.80
2022-12-29T23:10:03.417Z,0.80
2022-12-29T23:12:32.193Z,0.87
2022-12-29T23:15:01.763Z,0.80
2022-12-29T23:17:31.511Z,0.90
2022-12-29T23:19:59.852Z,1.10
2022-12-29T23:22:28.231Z,1.17
2022-12-29T23:24:57.953Z,1.10
2022-12-29T23:27:26.427Z,0.77
2022-12-29T23:29:54.808Z,0.80
2022-12-29T23:32:23.200Z,0.87
2022-12-29T23:34:52.950Z,0.67
2022-12-29T23:37:21.318Z,0.63
2022-12-29T23:39:49.659Z,0.60
2022-12-29T23:42:18.357Z,0.63
2022-12-29T23:44:46.713Z,0.50
2022-12-29T23:47:15.084Z,0.50
2022-12-29T23:49:43.449Z,0.60
2022-12-29T23:52:13.210Z,0.70
2022-12-29T23:54:41.769Z,0.50
2022-12-29T23:57:10.190Z,0.70
2022-12-29T23:59:38.553Z,0.50
